Tetide — IVTN — position and weather

sailwx.info

Track history (hours):
 
Tides and Currents Weather Stations Pressure Air Temp Water Temp Dewpoint Dewpoint Depression Visibility Wind Speed Wind Dir Waves Ship Positions

Tetide

Last reported at 2014-Oct-19 16:33 UTC. Time now 2014-Oct-26 02:59 UTC.
Position N 41°15' E 013°37'.

Length 70 m; draft 3.6 m.

Type: Passenger vessel. MMSI: 247043100.

Date/timePositionNaut miles runAvg speedWind from/ knotsBaromVisibWave heightAir tempDewpointWater temp
2014-Oct-19 16:33N 41°15' E 013°37'  
2014-Oct-15 13:12N 40°51' E 013°27'1 0.0
2014-Oct-14 09:05N 40°51' E 013°26'1214.5
2014-Oct-14 08:14N 41°02' E 013°31'8 0.5
2014-Oct-13 16:04N 41°10' E 013°31'713.1
2014-Oct-13 15:33N 41°15' E 013°37'5 4.8
2014-Oct-13 14:34N 41°11' E 013°35'2015.5
2014-Oct-13 13:15N 40°51' E 013°27'22 3.9
2014-Oct-13 07:34N 41°12' E 013°36'3 1.5
2014-Oct-13 05:33N 41°15' E 013°37'0 0.0
2014-Oct-13 03:21N 41°15' E 013°37'0 0.0
2014-Oct-13 02:08N 41°15' E 013°37'0 0.0
2014-Oct-13 00:07N 41°15' E 013°37'0 0.0
2014-Oct-12 21:29N 41°15' E 013°37'0 0.0
2014-Oct-11 15:33N 41°15' E 013°37'0 0.0
2014-Oct-11 06:29N 41°15' E 013°37'0 0.0
2014-Oct-11 05:34N 41°15' E 013°37'0 0.0
2014-Oct-11 04:34N 41°15' E 013°37'0 0.0
2014-Oct-11 03:33N 41°15' E 013°37'0 0.0
2014-Oct-11 02:34N 41°15' E 013°37'0 0.0
2014-Oct-11 01:32N 41°15' E 013°37'0 0.0
2014-Oct-11 00:34N 41°15' E 013°37'0 0.0
2014-Oct-10 23:34N 41°15' E 013°37'0 0.0
2014-Oct-10 22:33N 41°15' E 013°37'0 0.0
2014-Oct-10 21:33N 41°15' E 013°37'0 0.0
2014-Oct-10 20:34N 41°15' E 013°37'0 0.0
2014-Oct-10 19:34N 41°15' E 013°37'0 0.0
2014-Oct-10 18:32N 41°15' E 013°37'0 0.0
2014-Oct-10 17:32N 41°15' E 013°37'0 0.0
2014-Oct-10 16:28N 41°15' E 013°37'0 0.0
2014-Oct-10 15:32N 41°15' E 013°37'7 6.6
2014-Oct-10 14:25N 41°08' E 013°34'1315.1
2014-Oct-10 13:33N 40°56' E 013°29'17 2.9
2014-Oct-10 07:32N 41°12' E 013°36'  
Track history (hours):
 
Tides and Currents Weather Stations Pressure Air Temp Water Temp Dewpoint Dewpoint Depression Visibility Wind Speed Wind Dir Waves Ship Positions

Tetide

Last reported at 2014-Oct-19 16:33 UTC. Time now 2014-Oct-26 02:59 UTC.
Position N 41°15' E 013°37'.

Length 70 m; draft 3.6 m.

Type: Passenger vessel. MMSI: 247043100.

Date/timePositionNaut miles runAvg speedWind from/ knotsBaromVisibWave heightAir tempDewpointWater temp
2014-Oct-19 16:33N 41°15' E 013°37'  
2014-Oct-15 13:12N 40°51' E 013°27'1 0.0
2014-Oct-14 09:05N 40°51' E 013°26'1214.5
2014-Oct-14 08:14N 41°02' E 013°31'8 0.5
2014-Oct-13 16:04N 41°10' E 013°31'713.1
2014-Oct-13 15:33N 41°15' E 013°37'5 4.8
2014-Oct-13 14:34N 41°11' E 013°35'2015.5
2014-Oct-13 13:15N 40°51' E 013°27'22 3.9
2014-Oct-13 07:34N 41°12' E 013°36'3 1.5
2014-Oct-13 05:33N 41°15' E 013°37'0 0.0
2014-Oct-13 03:21N 41°15' E 013°37'0 0.0
2014-Oct-13 02:08N 41°15' E 013°37'0 0.0
2014-Oct-13 00:07N 41°15' E 013°37'0 0.0
2014-Oct-12 21:29N 41°15' E 013°37'0 0.0
2014-Oct-11 15:33N 41°15' E 013°37'0 0.0
2014-Oct-11 06:29N 41°15' E 013°37'0 0.0
2014-Oct-11 05:34N 41°15' E 013°37'0 0.0
2014-Oct-11 04:34N 41°15' E 013°37'0 0.0
2014-Oct-11 03:33N 41°15' E 013°37'0 0.0
2014-Oct-11 02:34N 41°15' E 013°37'0 0.0
2014-Oct-11 01:32N 41°15' E 013°37'0 0.0
2014-Oct-11 00:34N 41°15' E 013°37'0 0.0
2014-Oct-10 23:34N 41°15' E 013°37'0 0.0
2014-Oct-10 22:33N 41°15' E 013°37'0 0.0
2014-Oct-10 21:33N 41°15' E 013°37'0 0.0
2014-Oct-10 20:34N 41°15' E 013°37'0 0.0
2014-Oct-10 19:34N 41°15' E 013°37'0 0.0
2014-Oct-10 18:32N 41°15' E 013°37'0 0.0
2014-Oct-10 17:32N 41°15' E 013°37'0 0.0
2014-Oct-10 16:28N 41°15' E 013°37'0 0.0
2014-Oct-10 15:32N 41°15' E 013°37'7 6.6
2014-Oct-10 14:25N 41°08' E 013°34'1315.1
2014-Oct-10 13:33N 40°56' E 013°29'17 2.9
2014-Oct-10 07:32N 41°12' E 013°36'  

Dump ship's entire track history